トビリシ国際空港の過去48時間の天気

トビリシ国際空港 (Tbilisi)

現在時刻: 2/22 11:39 +04 (2/22 07:39 UTC) 以下の時間は現地時間です。

過去48時間のMETAR気象情報
時間 風向 風速(m/s) 視程 気温(℃) 湿度(%) 気圧(hPa) 天気現象
22 11:00 3 3600m 6 93 1023 もや
22 10:00 東南東 2 3300m 6 93 1023 もや
22 09:30 東北東 2 2600m 5 93 1023 もや
22 09:00 東南東 2 2700m 5 93 1023 もや
22 07:00 3 7000m 5 87 1022
22 06:00 東南東 3 10km以上 5 81 1022
22 05:30 南東 2 10km以上 5 81 1022
22 05:00 2 10km以上 6 81 1022
22 04:00 東北東 4 10km以上 6 76 1022
22 03:30 東北東 3 10km以上 6 70 1021
22 03:00 東北東 4 10km以上 6 65 1021
22 01:30 2 10km以上 6 65 1021
22 01:00 不定 1 10km以上 6 70 1021
22 00:30 不定 1 10km以上 7 61 1021
21 23:30 不定 1 10km以上 6 65 1020
21 22:30 北北東 2 10km以上 9 57 1020
21 21:30 北東 4 10km以上 7 66 1019
21 21:00 北東 4 10km以上 8 61 1019
21 20:30 北東 4 10km以上 8 57 1019
21 20:00 東北東 3 10km以上 8 57 1018
21 19:30 3 10km以上 9 57 1018
21 19:00 3 10km以上 10 54 1018
21 18:30 南東 3 10km以上 11 50 1017
21 18:00 南南東 2 10km以上 12 47 1017
21 17:30 3 10km以上 13 47 1017
21 17:00 3 10km以上 13 44 1017
21 16:30 4 10km以上 13 47 1017
21 16:00 3 10km以上 13 47 1017
21 15:30 3 10km以上 13 47 1017
21 15:00 3 10km以上 13 47 1017
21 14:30 南東 2 10km以上 13 47 1017
21 14:00 3 10km以上 11 54 1018
21 13:30 不定 2 10km以上 11 54 1018
21 13:00 3 10km以上 10 58 1018
21 12:30 南南東 2 10km以上 10 58 1019
21 12:00 3 9000m 9 62 1019
21 11:30 2 8000m 8 66 1019
21 11:00 南南西 3 10km以上 7 70 1020
21 10:30 南南西 2 10km以上 7 66 1019
21 10:00 静穏 0 10km以上 7 66 1019
21 09:30 静穏 0 10km以上 5 70 1019
21 09:00 不定 1 7000m 3 81 1019
21 08:30 北北西 2 9000m 2 81 1019
21 08:00 不定 1 10km以上 3 81 1018
21 07:30 北東 3 10km以上 3 81 1018
21 07:00 北東 2 10km以上 3 81 1018
21 06:30 北北東 2 10km以上 3 75 1018
21 06:00 東北東 3 10km以上 3 75 1018
21 05:30 東北東 2 10km以上 3 75 1018
21 05:00 北東 2 10km以上 4 70 1017
21 04:30 北東 2 10km以上 3 81 1017
21 04:00 不定 1 10km以上 5 70 1017
21 03:30 北東 2 10km以上 5 70 1018
21 03:00 2 10km以上 4 75 1018
21 02:30 南東 2 10km以上 6 65 1018
21 02:00 東南東 2 10km以上 6 65 1018
21 01:30 東北東 2 10km以上 6 70 1017
21 01:00 2 10km以上 6 70 1018
21 00:30 東南東 2 10km以上 5 70 1018
21 00:00 2 10km以上 6 65 1018
20 23:30 2 10km以上 6 70 1018
20 23:00 北東 2 10km以上 6 70 1018
20 22:30 東北東 3 10km以上 7 61 1017
20 22:00 北東 2 10km以上 7 61 1017
20 21:30 静穏 0 10km以上 8 57 1017
20 21:00 静穏 0 10km以上 8 61 1017
20 20:30 静穏 0 10km以上 8 61 1017
20 20:00 東南東 3 10km以上 8 61 1017
20 19:30 東南東 2 10km以上 8 57 1016
20 19:00 東南東 4 10km以上 9 53 1016
20 18:30 南東 4 10km以上 10 50 1015
20 18:00 南南東 5 10km以上 11 47 1015
20 17:30 南南東 5 10km以上 11 43 1015
20 17:00 南東 5 10km以上 12 41 1014
20 16:30 南南東 4 10km以上 13 38 1014
20 16:00 3 10km以上 14 33 1014
20 15:30 南南東 4 10km以上 14 33 1014
20 15:00 南南東 4 10km以上 13 38 1014
20 14:30 南南東 4 10km以上 14 33 1014
20 14:00 西 3 10km以上 13 35 1015
20 13:30 北西 4 10km以上 14 33 1015
20 13:00 西北西 6 10km以上 13 35 1015
20 12:30 西北西 6 10km以上 12 41 1016
20 12:00 北西 6 10km以上 12 38 1016
UGTB 220700Z 17005KT 130V200 3600 BR BKN002 OVC009 06/05 Q1023 TEMPO 1000 BR
UGTB 220600Z 11004KT 3300 BR SCT002 OVC004 06/05 Q1023 TEMPO 2000 BR
UGTB 220530Z 07004KT 2600 BR OVC004 05/04 Q1023 TEMPO 2000 BR
UGTB 220500Z 12004KT 2700 BR BKN004 OVC009 05/04 Q1023 TEMPO 2000 BR
UGTB 220300Z 08005KT 7000 BKN005 OVC013 05/03 Q1022 TEMPO 2000 BR
UGTB 220200Z 12005KT 090V150 9999 SCT005 BKN015 OVC017 05/02 Q1022 TEMPO 2000 BR
UGTB 220130Z 13004KT 9999 OVC018 05/02 Q1022 NOSIG
UGTB 220100Z 09004KT 050V110 9999 SCT019 OVC042 06/03 Q1022 NOSIG
UGTB 220000Z 06007KT 9999 SCT018 BKN028 06/02 Q1022 NOSIG
UGTB 212330Z 06006KT 9999 FEW020 SCT028 06/01 Q1021 NOSIG
UGTB 212300Z 07007KT 9999 SCT026 06/00 Q1021 NOSIG
UGTB 212130Z 36004KT CAVOK 06/00 Q1021 NOSIG
UGTB 212100Z VRB02KT CAVOK 06/01 Q1021 NOSIG
UGTB 212030Z VRB01KT CAVOK 07/00 Q1021 NOSIG
UGTB 211930Z VRB02KT CAVOK 06/00 Q1020 NOSIG
UGTB 211830Z 03004KT 360V100 CAVOK 09/01 Q1020 NOSIG
UGTB 211730Z 05008KT CAVOK 07/01 Q1019 NOSIG
UGTB 211700Z 05007KT CAVOK 08/01 Q1019 NOSIG
UGTB 211630Z 05007KT CAVOK 08/00 Q1019 NOSIG
UGTB 211600Z 06006KT CAVOK 08/00 Q1018 NOSIG
UGTB 211530Z 08005KT CAVOK 09/01 Q1018 NOSIG
UGTB 211500Z 10005KT CAVOK 10/01 Q1018 NOSIG
UGTB 211430Z 14005KT CAVOK 11/01 Q1017 NOSIG
UGTB 211400Z 16004KT 120V190 CAVOK 12/01 Q1017 NOSIG
UGTB 211330Z 17006KT 140V210 CAVOK 13/02 Q1017 NOSIG
UGTB 211300Z 17005KT 130V200 CAVOK 13/01 Q1017 NOSIG
UGTB 211230Z 19007KT CAVOK 13/02 Q1017 NOSIG
UGTB 211200Z 19006KT 160V230 CAVOK 13/02 Q1017 NOSIG
UGTB 211130Z 17005KT 110V210 CAVOK 13/02 Q1017 NOSIG
UGTB 211100Z VRB05KT CAVOK 13/02 Q1017 NOSIG
UGTB 211030Z 14004KT 080V200 CAVOK 13/02 Q1017 NOSIG
UGTB 211000Z 18005KT 120V240 CAVOK 11/02 Q1018 NOSIG
UGTB 210930Z VRB04KT CAVOK 11/02 Q1018 NOSIG
UGTB 210900Z 19005KT 140V260 CAVOK 10/02 Q1018 NOSIG
UGTB 210830Z 16004KT 070V230 CAVOK 10/02 Q1019 NOSIG
UGTB 210800Z 19005KT 140V220 9000 NSC 09/02 Q1019 NOSIG
UGTB 210730Z 18003KT 110V220 8000 NSC 08/02 Q1019 NOSIG
UGTB 210700Z 20005KT CAVOK 07/02 Q1020 NOSIG
UGTB 210630Z 21003KT 160V260 CAVOK 07/01 Q1019 NOSIG
UGTB 210600Z 00000KT CAVOK 07/01 Q1019 NOSIG
UGTB 210530Z 00000KT CAVOK 05/00 Q1019 NOSIG
UGTB 210500Z VRB01KT 7000 NSC 03/00 Q1019 NOSIG
UGTB 210430Z 33003KT 9000 NSC 02/M01 Q1019 NOSIG
UGTB 210400Z VRB02KT CAVOK 03/00 Q1018 NOSIG
UGTB 210330Z 05005KT CAVOK 03/M00 Q1018 NOSIG
UGTB 210300Z 04004KT CAVOK 03/M00 Q1018 NOSIG
UGTB 210230Z 02003KT CAVOK 03/M01 Q1018 NOSIG
UGTB 210200Z 06005KT 020V080 CAVOK 03/M01 Q1018 NOSIG
UGTB 210130Z 06003KT 9999 FEW013 03/M01 Q1018 NOSIG
UGTB 210100Z 05004KT CAVOK 04/M01 Q1017 NOSIG
UGTB 210030Z 05004KT CAVOK 03/M00 Q1017 NOSIG
UGTB 210000Z VRB02KT CAVOK 05/M00 Q1017 NOSIG
UGTB 202330Z 05003KT 020V080 CAVOK 05/00 Q1018 NOSIG
UGTB 202300Z 08003KT CAVOK 04/M00 Q1018 NOSIG
UGTB 202230Z 14003KT CAVOK 06/00 Q1018 NOSIG
UGTB 202200Z 11003KT CAVOK 06/00 Q1018 NOSIG
UGTB 202130Z 06003KT CAVOK 06/01 Q1017 NOSIG
UGTB 202100Z 08004KT CAVOK 06/01 Q1018 NOSIG
UGTB 202030Z 12004KT CAVOK 05/00 Q1018 NOSIG
UGTB 202000Z 10004KT CAVOK 06/00 Q1018 NOSIG
UGTB 201930Z 08003KT CAVOK 06/01 Q1018 NOSIG
UGTB 201900Z 05003KT CAVOK 06/01 Q1018 NOSIG
UGTB 201830Z 06005KT CAVOK 07/00 Q1017 NOSIG
UGTB 201800Z 04003KT CAVOK 07/00 Q1017 NOSIG
UGTB 201730Z 00000KT CAVOK 08/00 Q1017 NOSIG
UGTB 201700Z 00000KT CAVOK 08/01 Q1017 NOSIG
UGTB 201630Z 00000KT CAVOK 08/01 Q1017 NOSIG
UGTB 201600Z 11005KT CAVOK 08/01 Q1017 NOSIG
UGTB 201530Z 11004KT CAVOK 08/00 Q1016 NOSIG
UGTB 201500Z 11007KT CAVOK 09/00 Q1016 NOSIG
UGTB 201430Z 13008KT CAVOK 10/M00 Q1015 NOSIG
UGTB 201400Z 15009KT CAVOK 11/M00 Q1015 NOSIG
UGTB 201330Z 15009KT CAVOK 11/M01 Q1015 NOSIG
UGTB 201300Z 14009KT CAVOK 12/M01 Q1014 NOSIG
UGTB 201230Z 16008KT 130V200 CAVOK 13/M01 Q1014 NOSIG
UGTB 201200Z 17006KT 130V240 CAVOK 14/M02 Q1014 NOSIG
UGTB 201130Z 16008KT 120V200 CAVOK 14/M02 Q1014 NOSIG
UGTB 201100Z 16008KT 090V210 CAVOK 13/M01 Q1014 NOSIG
UGTB 201030Z 15007KT 100V200 CAVOK 14/M02 Q1014 NOSIG
UGTB 201000Z 27006KT 220V330 CAVOK 13/M02 Q1015 NOSIG
UGTB 200930Z 31008KT 280V350 CAVOK 14/M02 Q1015 NOSIG
UGTB 200900Z 30012KT CAVOK 13/M02 Q1015 NOSIG
UGTB 200830Z 30011KT CAVOK 12/M01 Q1016 NOSIG
UGTB 200800Z 32011KT CAVOK 12/M02 Q1016 NOSIG